createdAt,value
2016-11-16T00:00:39.151Z,0
2016-11-16T00:01:49.427Z,0
2016-11-16T00:02:59.703Z,0
2016-11-16T00:04:09.359Z,0
2016-11-16T00:05:19.638Z,0
2016-11-16T00:06:29.608Z,0
2016-11-16T00:07:39.935Z,0
2016-11-16T00:08:50.207Z,0
2016-11-16T00:10:00.175Z,0
2016-11-16T00:11:10.460Z,0
2016-11-16T00:12:20.738Z,0
2016-11-16T00:13:30.715Z,0
2016-11-16T00:14:40.700Z,0
2016-11-16T00:15:50.658Z,0
2016-11-16T00:17:00.329Z,0
2016-11-16T00:18:10.592Z,0
2016-11-16T00:19:20.872Z,0
2016-11-16T00:20:31.144Z,0
2016-11-16T00:21:41.433Z,0
2016-11-16T00:22:51.701Z,0
2016-11-16T00:24:02.010Z,0
2016-11-16T00:25:11.988Z,0
2016-11-16T00:26:22.278Z,0
2016-11-16T00:27:32.255Z,0
2016-11-16T00:28:42.227Z,0
2016-11-16T00:29:52.188Z,0
2016-11-16T00:31:02.468Z,0
2016-11-16T00:32:12.741Z,0
2016-11-16T00:33:22.714Z,0
2016-11-16T00:34:32.993Z,0
2016-11-16T00:35:42.958Z,0
2016-11-16T00:36:52.929Z,0
2016-11-16T00:38:03.206Z,0
2016-11-16T00:39:12.567Z,0
2016-11-16T00:40:22.540Z,0
2016-11-16T00:41:32.513Z,0
2016-11-16T00:42:42.169Z,0
2016-11-16T00:43:51.836Z,0
2016-11-16T00:45:02.104Z,0
2016-11-16T00:46:12.092Z,0
2016-11-16T00:47:21.466Z,0
2016-11-16T00:48:31.785Z,0
2016-11-16T00:49:42.064Z,0
2016-11-16T00:50:52.031Z,0
2016-11-16T00:52:02.313Z,0
2016-11-16T00:53:12.282Z,0
2016-11-16T00:54:21.957Z,0
2016-11-16T00:55:32.242Z,0
2016-11-16T00:56:42.224Z,0
2016-11-16T00:57:52.200Z,0
2016-11-16T00:59:02.505Z,0
2016-11-16T01:00:12.475Z,0
2016-11-16T01:01:21.815Z,0
2016-11-16T01:02:31.478Z,0
2016-11-16T01:03:41.435Z,0
2016-11-16T01:04:51.400Z,0
2016-11-16T01:06:01.682Z,0
2016-11-16T01:07:11.652Z,0
2016-11-16T01:08:21.932Z,0
2016-11-16T01:09:32.199Z,0
2016-11-16T01:10:42.169Z,0
2016-11-16T01:11:52.441Z,0
2016-11-16T01:13:02.713Z,0
2016-11-16T01:14:12.379Z,0
2016-11-16T01:15:22.662Z,0
2016-11-16T01:16:32.632Z,0
2016-11-16T01:17:42.906Z,0
2016-11-16T01:18:52.862Z,0
2016-11-16T01:20:02.526Z,0
2016-11-16T01:21:12.485Z,0
2016-11-16T01:22:22.452Z,0
2016-11-16T01:23:32.409Z,0
2016-11-16T01:24:43.195Z,0
2016-11-16T01:25:52.677Z,0
2016-11-16T01:27:02.957Z,0
2016-11-16T01:28:13.236Z,0
2016-11-16T01:29:23.542Z,0
2016-11-16T01:30:33.510Z,0
2016-11-16T01:31:43.502Z,0
2016-11-16T01:32:53.478Z,0
2016-11-16T01:34:03.754Z,0
2016-11-16T01:35:14.025Z,0
2016-11-16T01:36:24.293Z,0
2016-11-16T01:37:34.569Z,0
2016-11-16T01:38:44.846Z,0
2016-11-16T01:39:54.807Z,0
2016-11-16T01:41:04.802Z,0
2016-11-16T01:42:15.073Z,0
2016-11-16T01:43:25.347Z,0
2016-11-16T01:44:35.624Z,0
2016-11-16T01:45:45.586Z,0
2016-11-16T01:46:55.872Z,0
2016-11-16T01:48:06.151Z,0
2016-11-16T01:49:16.458Z,0
2016-11-16T01:50:26.418Z,0
2016-11-16T01:51:36.685Z,0
2016-11-16T01:52:46.656Z,0
2016-11-16T01:53:56.329Z,0
2016-11-16T01:55:06.300Z,0
2016-11-16T01:56:16.265Z,0
2016-11-16T01:57:26.545Z,0
2016-11-16T01:58:36.519Z,0
2016-11-16T01:59:46.481Z,0
2016-11-16T02:00:56.443Z,0
2016-11-16T02:02:06.445Z,0
2016-11-16T02:03:16.111Z,0
2016-11-16T02:04:26.387Z,0
2016-11-16T02:05:36.039Z,0
2016-11-16T02:06:46.325Z,0
2016-11-16T02:07:56.594Z,0
2016-11-16T02:09:06.266Z,0
2016-11-16T02:10:15.612Z,0
2016-11-16T02:11:25.878Z,0
2016-11-16T02:12:35.526Z,0
2016-11-16T02:13:45.812Z,0
2016-11-16T02:14:55.789Z,0
2016-11-16T02:16:06.075Z,0
2016-11-16T02:17:16.047Z,0
2016-11-16T02:18:26.019Z,0
2016-11-16T02:19:35.981Z,0
2016-11-16T02:20:45.323Z,0
2016-11-16T02:21:55.589Z,0
2016-11-16T02:23:05.558Z,0
2016-11-16T02:24:15.229Z,0
2016-11-16T02:25:25.189Z,0
2016-11-16T02:26:35.482Z,0
2016-11-16T02:27:45.758Z,0
2016-11-16T02:28:56.034Z,0
2016-11-16T02:30:06.311Z,0
2016-11-16T02:31:16.576Z,0
2016-11-16T02:32:26.853Z,0
2016-11-16T02:33:37.163Z,0
2016-11-16T02:34:47.163Z,0
2016-11-16T02:35:57.425Z,0
2016-11-16T02:37:07.693Z,0
2016-11-16T02:38:17.966Z,0
2016-11-16T02:39:28.239Z,0
2016-11-16T02:40:38.211Z,0
2016-11-16T02:41:48.482Z,0
2016-11-16T02:42:57.823Z,0
2016-11-16T02:44:07.175Z,0
2016-11-16T02:45:17.457Z,0
2016-11-16T02:46:27.432Z,0
2016-11-16T02:47:37.709Z,0
2016-11-16T02:48:47.361Z,0
2016-11-16T02:49:57.637Z,0
2016-11-16T02:51:07.617Z,0
2016-11-16T02:52:17.893Z,0
2016-11-16T02:53:28.177Z,0
2016-11-16T02:54:37.217Z,0
2016-11-16T02:55:47.481Z,0
2016-11-16T02:56:57.468Z,0
2016-11-16T02:58:07.739Z,0
2016-11-16T02:59:17.694Z,0
2016-11-16T03:00:27.660Z,0
2016-11-16T03:32:36.053Z,0
2016-11-16T03:33:46.361Z,0
2016-11-16T03:34:56.628Z,0
2016-11-16T03:36:06.889Z,0
2016-11-16T03:37:17.184Z,0
2016-11-16T03:38:27.466Z,0
2016-11-16T03:39:37.728Z,0
2016-11-16T03:40:47.993Z,0
2016-11-16T03:41:58.256Z,0
2016-11-16T03:43:08.523Z,0
2016-11-16T03:44:18.800Z,0
2016-11-16T03:45:29.082Z,0
2016-11-16T03:46:39.048Z,0
2016-11-16T03:47:49.029Z,0
2016-11-16T03:48:58.996Z,0
2016-11-16T03:50:09.272Z,0
2016-11-16T03:51:19.554Z,0
2016-11-16T03:52:29.822Z,0
2016-11-16T03:53:39.777Z,0
2016-11-16T03:54:49.786Z,0
2016-11-16T03:55:59.752Z,0
2016-11-16T03:57:09.718Z,0
2016-11-16T03:58:19.987Z,0
2016-11-16T03:59:29.961Z,0
2016-11-16T04:00:39.924Z,0
2016-11-16T04:01:49.905Z,0
2016-11-16T04:02:59.877Z,0
2016-11-16T04:04:10.173Z,0
2016-11-16T04:05:20.147Z,0
2016-11-16T04:06:30.103Z,0
2016-11-16T04:07:40.059Z,0
2016-11-16T04:08:50.022Z,0
2016-11-16T04:10:00.292Z,0
2016-11-16T04:11:10.583Z,0
2016-11-16T04:12:20.849Z,0
2016-11-16T04:13:31.122Z,0
2016-11-16T04:14:41.090Z,0
2016-11-16T04:15:51.375Z,0
2016-11-16T04:17:01.348Z,0
2016-11-16T04:18:11.614Z,0
2016-11-16T04:19:21.571Z,0
2016-11-16T04:20:31.846Z,0
2016-11-16T04:21:41.813Z,0
2016-11-16T04:22:52.090Z,0
2016-11-16T04:24:02.423Z,0
2016-11-16T04:25:12.695Z,0
2016-11-16T04:26:22.962Z,0
2016-11-16T04:27:33.232Z,0
2016-11-16T04:28:43.521Z,0
2016-11-16T04:29:53.803Z,0
2016-11-16T04:31:04.087Z,0
2016-11-16T04:32:14.385Z,0
2016-11-16T04:33:24.354Z,0
2016-11-16T04:34:34.630Z,0
2016-11-16T04:35:44.900Z,0
2016-11-16T04:36:54.861Z,0
2016-11-16T04:38:04.824Z,0
2016-11-16T04:39:15.100Z,0
2016-11-16T04:40:25.063Z,0
2016-11-16T04:41:35.043Z,0
2016-11-16T04:42:45.312Z,0
2016-11-16T04:43:55.577Z,0
2016-11-16T04:45:05.864Z,0
2016-11-16T04:46:15.834Z,0
2016-11-16T04:47:25.803Z,0
2016-11-16T04:48:36.078Z,0
2016-11-16T04:49:46.371Z,0
2016-11-16T04:50:56.664Z,0
2016-11-16T04:52:06.642Z,0
2016-11-16T04:53:16.915Z,0
2016-11-16T04:54:27.193Z,0
2016-11-16T04:55:36.862Z,0
2016-11-16T04:56:47.130Z,0
2016-11-16T04:57:57.467Z,0
2016-11-16T04:59:07.747Z,0
2016-11-16T05:00:17.717Z,0
2016-11-16T05:01:27.387Z,0
2016-11-16T05:02:37.672Z,0
2016-11-16T05:03:47.962Z,0
2016-11-16T05:04:57.959Z,0
2016-11-16T05:06:08.235Z,0
2016-11-16T05:07:18.512Z,0
2016-11-16T05:08:28.481Z,0
2016-11-16T05:09:38.459Z,0
2016-11-16T05:10:48.734Z,0
2016-11-16T05:11:59.005Z,0
2016-11-16T05:13:08.978Z,0
2016-11-16T05:14:19.247Z,0
2016-11-16T05:15:29.543Z,0
2016-11-16T05:16:39.811Z,0
2016-11-16T05:17:49.802Z,0
2016-11-16T05:18:59.480Z,0
2016-11-16T05:20:09.136Z,0
2016-11-16T05:21:19.108Z,0
2016-11-16T05:22:29.375Z,0
2016-11-16T05:23:39.366Z,0
2016-11-16T05:24:49.642Z,0
2016-11-16T05:25:59.920Z,0
2016-11-16T05:27:09.877Z,0
2016-11-16T05:28:19.529Z,0
2016-11-16T05:29:29.809Z,0
2016-11-16T05:30:39.808Z,0
2016-11-16T05:31:50.094Z,0
2016-11-16T05:33:00.055Z,0
2016-11-16T05:34:10.329Z,0
2016-11-16T05:35:20.610Z,0
2016-11-16T05:36:30.909Z,0
2016-11-16T05:37:40.873Z,0
2016-11-16T05:38:51.169Z,0
2016-11-16T05:40:01.450Z,0
2016-11-16T05:41:11.729Z,0
2016-11-16T05:42:21.374Z,0
2016-11-16T05:43:31.343Z,0
2016-11-16T05:44:41.628Z,0
2016-11-16T05:45:51.905Z,0
2016-11-16T05:47:01.861Z,0
2016-11-16T05:48:12.151Z,0
2016-11-16T05:49:22.428Z,0
2016-11-16T05:50:32.702Z,0
2016-11-16T05:51:43.003Z,0
2016-11-16T05:52:53.280Z,0
2016-11-16T05:54:03.557Z,0
2016-11-16T05:55:13.851Z,0
2016-11-16T05:56:24.126Z,0
2016-11-16T05:57:34.098Z,0
2016-11-16T05:58:44.404Z,0
2016-11-16T05:59:54.376Z,0
2016-11-16T06:01:04.361Z,0
2016-11-16T06:02:14.640Z,0
2016-11-16T06:03:24.917Z,0
2016-11-16T06:04:35.238Z,0
2016-11-16T06:05:45.524Z,0
2016-11-16T06:06:55.802Z,0
2016-11-16T06:08:06.088Z,0
2016-11-16T06:09:16.361Z,0
2016-11-16T06:10:26.627Z,0
2016-11-16T06:11:36.904Z,0
2016-11-16T06:12:46.566Z,0
2016-11-16T06:13:56.848Z,0
2016-11-16T06:15:07.128Z,0
2016-11-16T06:16:17.472Z,0
2016-11-16T06:17:27.443Z,0
2016-11-16T06:18:37.404Z,0
2016-11-16T06:19:47.706Z,0
2016-11-16T06:20:57.972Z,0
2016-11-16T06:22:08.253Z,0
2016-11-16T06:23:18.531Z,0
2016-11-16T06:24:28.498Z,0
2016-11-16T06:25:38.785Z,0
2016-11-16T06:26:49.073Z,5
2016-11-16T06:27:59.035Z,5
2016-11-16T06:29:09.314Z,5
2016-11-16T06:30:19.592Z,5
2016-11-16T06:31:29.878Z,5
2016-11-16T06:32:39.610Z,5
2016-11-16T06:33:49.613Z,5
2016-11-16T06:34:59.584Z,5
2016-11-16T06:36:09.560Z,5
2016-11-16T06:37:19.223Z,5
2016-11-16T06:38:29.509Z,5
2016-11-16T06:39:39.187Z,5
2016-11-16T06:40:49.163Z,5
2016-11-16T06:41:59.434Z,5
2016-11-16T06:43:09.712Z,10
2016-11-16T06:44:19.983Z,10
2016-11-16T06:45:29.955Z,5
2016-11-16T06:46:39.312Z,10
2016-11-16T06:47:49.579Z,10
2016-11-16T06:48:59.866Z,10
2016-11-16T06:50:10.162Z,10
2016-11-16T06:51:20.468Z,10
2016-11-16T06:52:30.737Z,10
2016-11-16T06:53:40.399Z,10
2016-11-16T06:54:50.364Z,10
2016-11-16T06:56:00.337Z,10
2016-11-16T06:57:10.632Z,10
2016-11-16T06:58:20.909Z,10
2016-11-16T06:59:30.573Z,10
2016-11-16T07:00:40.865Z,10
2016-11-16T07:01:51.131Z,10
2016-11-16T07:03:01.412Z,10
2016-11-16T07:04:11.754Z,10
2016-11-16T07:05:22.040Z,10
2016-11-16T07:06:31.701Z,15
2016-11-16T07:07:41.670Z,15
2016-11-16T07:08:51.951Z,15
2016-11-16T07:10:01.962Z,15
2016-11-16T07:11:11.622Z,15
2016-11-16T07:12:21.899Z,15
2016-11-16T07:13:32.191Z,15
2016-11-16T07:14:41.854Z,20
2016-11-16T07:15:52.120Z,20
2016-11-16T07:17:02.397Z,20
2016-11-16T07:18:11.753Z,20
2016-11-16T07:19:22.027Z,20
2016-11-16T07:20:32.008Z,20
2016-11-16T07:21:42.292Z,25
2016-11-16T07:22:52.586Z,30
2016-11-16T07:24:02.576Z,35
2016-11-16T07:25:12.840Z,35
2016-11-16T07:26:23.141Z,35
2016-11-16T07:27:33.418Z,35
2016-11-16T07:28:43.404Z,35
2016-11-16T07:29:53.405Z,35
2016-11-16T07:31:03.683Z,35
2016-11-16T07:32:13.687Z,35
2016-11-16T07:33:23.661Z,35
2016-11-16T07:34:33.638Z,40
2016-11-16T07:35:43.939Z,35
2016-11-16T07:36:54.216Z,35
2016-11-16T07:38:04.489Z,40
2016-11-16T07:39:14.791Z,45
2016-11-16T07:40:25.058Z,40
2016-11-16T07:41:35.348Z,40
2016-11-16T07:42:45.635Z,45
2016-11-16T07:43:55.916Z,45
2016-11-16T07:45:06.229Z,50
2016-11-16T07:46:16.210Z,50
2016-11-16T07:47:26.176Z,45
2016-11-16T07:48:36.444Z,40
2016-11-16T07:49:46.425Z,45
2016-11-16T07:50:56.707Z,45
2016-11-16T07:52:06.983Z,55
2016-11-16T07:53:16.327Z,55
2016-11-16T07:54:26.312Z,45
2016-11-16T07:55:36.591Z,45
2016-11-16T07:56:46.251Z,45
2016-11-16T07:57:56.541Z,40
2016-11-16T07:59:05.893Z,40
2016-11-16T08:00:16.161Z,40
2016-11-16T08:01:26.440Z,40
2016-11-16T08:02:36.418Z,35
2016-11-16T08:03:46.085Z,35
2016-11-16T08:04:56.047Z,35
2016-11-16T08:06:06.323Z,35
2016-11-16T08:07:16.001Z,35
2016-11-16T08:08:25.967Z,35
2016-11-16T08:09:36.210Z,30
2016-11-16T08:10:46.189Z,35
2016-11-16T08:11:55.835Z,35
2016-11-16T08:13:06.100Z,30
2016-11-16T08:14:16.371Z,30
2016-11-16T08:15:26.355Z,25
2016-11-16T08:16:36.330Z,25
2016-11-16T08:17:46.031Z,25
2016-11-16T08:18:56.305Z,25
2016-11-16T08:20:05.970Z,30
2016-11-16T08:21:16.252Z,30
2016-11-16T08:22:26.538Z,30
2016-11-16T08:23:36.548Z,25
2016-11-16T08:24:46.821Z,25
2016-11-16T08:25:57.102Z,25
2016-11-16T08:27:06.797Z,25
2016-11-16T08:28:17.071Z,25
2016-11-16T08:29:26.728Z,25
2016-11-16T08:30:36.405Z,20
2016-11-16T08:31:46.704Z,20
2016-11-16T08:32:56.993Z,25
2016-11-16T08:34:07.279Z,30
2016-11-16T08:35:16.950Z,40
2016-11-16T08:36:27.234Z,35
2016-11-16T08:37:37.219Z,35
2016-11-16T08:38:47.530Z,45
2016-11-16T08:39:57.803Z,60
2016-11-16T08:41:07.510Z,65
2016-11-16T08:42:17.157Z,55
2016-11-16T08:43:26.852Z,55
2016-11-16T08:44:36.834Z,50
2016-11-16T08:45:46.181Z,45
2016-11-16T08:46:56.189Z,45
2016-11-16T08:48:06.169Z,35
2016-11-16T08:49:16.447Z,40
2016-11-16T08:50:26.410Z,40
2016-11-16T08:51:36.721Z,50
2016-11-16T08:52:47.011Z,50
2016-11-16T08:53:56.988Z,60
2016-11-16T08:55:07.277Z,60
2016-11-16T08:56:17.549Z,65
2016-11-16T08:57:27.560Z,60
2016-11-16T08:58:37.846Z,55
2016-11-16T08:59:47.840Z,50
2016-11-16T09:00:58.124Z,45
2016-11-16T09:02:07.494Z,45
2016-11-16T09:03:17.766Z,40
2016-11-16T09:04:27.738Z,45
2016-11-16T09:05:38.032Z,45
2016-11-16T09:06:47.952Z,45
2016-11-16T09:07:58.209Z,45
2016-11-16T09:09:08.470Z,45
2016-11-16T09:10:18.737Z,50
2016-11-16T09:11:28.408Z,50
2016-11-16T09:12:38.070Z,55
2016-11-16T09:13:48.039Z,60
2016-11-16T09:14:58.355Z,60
2016-11-16T09:16:08.321Z,50
2016-11-16T09:17:18.583Z,50
2016-11-16T09:18:28.864Z,45
2016-11-16T09:19:39.156Z,50
2016-11-16T09:20:48.517Z,55
2016-11-16T09:21:58.494Z,60
2016-11-16T09:23:08.465Z,60
2016-11-16T09:24:18.127Z,55
2016-11-16T09:25:28.441Z,55
2016-11-16T09:26:38.429Z,50
2016-11-16T09:27:48.412Z,60
2016-11-16T09:28:57.792Z,55
2016-11-16T09:30:08.076Z,50
2016-11-16T09:31:18.413Z,55
2016-11-16T09:32:28.724Z,55
2016-11-16T09:33:38.384Z,55
2016-11-16T09:34:48.666Z,60
2016-11-16T09:35:58.318Z,65
2016-11-16T09:37:07.978Z,60
2016-11-16T09:38:18.273Z,60
2016-11-16T09:39:28.799Z,50
2016-11-16T09:40:38.807Z,55
2016-11-16T09:41:48.478Z,60
2016-11-16T09:42:58.460Z,65
2016-11-16T09:44:07.806Z,80
2016-11-16T09:45:18.089Z,85
2016-11-16T09:46:28.050Z,90
2016-11-16T09:47:38.062Z,85
2016-11-16T09:48:48.053Z,85
2016-11-16T09:49:58.029Z,80
2016-11-16T09:51:08.007Z,80
2016-11-16T09:52:17.977Z,90
2016-11-16T09:53:27.949Z,85
2016-11-16T09:54:38.235Z,85
2016-11-16T09:55:48.210Z,75
2016-11-16T09:56:58.179Z,65
2016-11-16T09:58:08.473Z,60
2016-11-16T09:59:18.483Z,60
2016-11-16T10:00:28.466Z,65
2016-11-16T10:01:38.139Z,60
2016-11-16T10:02:48.107Z,55
2016-11-16T10:03:58.139Z,55
2016-11-16T10:05:08.132Z,60
2016-11-16T10:06:18.419Z,65
2016-11-16T10:07:27.772Z,55
2016-11-16T10:08:38.058Z,55
2016-11-16T10:09:48.344Z,55
2016-11-16T10:10:58.635Z,60
2016-11-16T10:12:08.911Z,60
2016-11-16T10:13:18.873Z,50
2016-11-16T10:14:29.140Z,50
2016-11-16T10:15:39.295Z,50
2016-11-16T10:16:49.573Z,50
2016-11-16T10:17:59.540Z,50
2016-11-16T10:19:09.509Z,55
2016-11-16T10:20:19.486Z,50
2016-11-16T10:21:29.809Z,55
2016-11-16T10:22:39.779Z,55
2016-11-16T10:23:50.073Z,65
2016-11-16T10:25:00.354Z,65
2016-11-16T10:26:10.632Z,65
2016-11-16T10:27:20.608Z,65
2016-11-16T10:28:30.894Z,65
2016-11-16T10:29:40.851Z,70
2016-11-16T10:30:50.523Z,70
2016-11-16T10:32:00.870Z,65
2016-11-16T10:33:11.146Z,70
2016-11-16T10:34:20.821Z,60
2016-11-16T10:35:31.089Z,55
2016-11-16T10:36:41.066Z,55
2016-11-16T10:37:51.035Z,65
2016-11-16T10:39:01.353Z,75
2016-11-16T10:40:11.332Z,75
2016-11-16T10:41:21.343Z,70
2016-11-16T10:42:31.694Z,70
2016-11-16T10:43:41.684Z,70
2016-11-16T10:44:52.006Z,60
2016-11-16T10:46:02.017Z,55
2016-11-16T10:47:12.298Z,50
2016-11-16T10:48:22.583Z,50
2016-11-16T10:49:32.892Z,55
2016-11-16T10:50:43.218Z,55
2016-11-16T10:51:53.257Z,55
2016-11-16T10:53:03.557Z,55
2016-11-16T10:54:13.857Z,50
2016-11-16T10:55:23.872Z,50
2016-11-16T10:56:34.177Z,45
2016-11-16T10:57:44.173Z,45
2016-11-16T10:58:54.444Z,45
2016-11-16T11:00:04.119Z,40
2016-11-16T11:01:14.408Z,35
2016-11-16T11:02:24.695Z,35
2016-11-16T11:03:34.662Z,35
2016-11-16T11:04:44.639Z,35
2016-11-16T11:05:54.997Z,40
2016-11-16T11:07:05.007Z,45
2016-11-16T11:08:15.619Z,45
2016-11-16T11:09:25.589Z,45
2016-11-16T11:10:35.876Z,45
2016-11-16T11:11:46.173Z,45
2016-11-16T11:12:56.485Z,40
2016-11-16T11:14:06.171Z,45
2016-11-16T11:15:16.458Z,45
2016-11-16T11:16:26.109Z,40
2016-11-16T11:17:35.452Z,45
2016-11-16T11:18:45.737Z,50
2016-11-16T11:19:55.097Z,50
2016-11-16T11:21:05.121Z,50
2016-11-16T11:22:15.438Z,55
2016-11-16T11:23:24.818Z,50
2016-11-16T11:24:35.139Z,50
2016-11-16T11:25:44.793Z,55
2016-11-16T11:26:54.761Z,50
2016-11-16T11:28:04.731Z,50
2016-11-16T11:29:15.029Z,55
2016-11-16T11:30:24.718Z,60
2016-11-16T11:31:34.749Z,60
2016-11-16T11:32:44.424Z,65
2016-11-16T11:33:54.381Z,70
2016-11-16T11:35:04.360Z,70
2016-11-16T11:36:14.639Z,75
2016-11-16T11:37:24.915Z,75
2016-11-16T11:38:34.882Z,75
2016-11-16T11:39:44.853Z,75
2016-11-16T11:40:54.818Z,75
2016-11-16T11:42:05.093Z,70
2016-11-16T11:43:15.072Z,70
2016-11-16T11:44:25.365Z,70
2016-11-16T11:45:35.681Z,65
2016-11-16T11:46:45.959Z,70
2016-11-16T11:47:55.955Z,75
2016-11-16T11:49:06.242Z,75
2016-11-16T11:50:16.223Z,65
2016-11-16T11:51:26.502Z,70
2016-11-16T11:52:36.767Z,75
2016-11-16T11:53:47.043Z,75
2016-11-16T11:54:57.018Z,70
2016-11-16T11:56:07.288Z,80
2016-11-16T11:57:17.573Z,85
2016-11-16T11:58:27.230Z,85
2016-11-16T11:59:37.513Z,80
2016-11-16T12:00:47.180Z,70
2016-11-16T12:01:57.141Z,65
2016-11-16T12:03:07.105Z,60
2016-11-16T12:04:17.303Z,65
2016-11-16T12:05:27.863Z,65
2016-11-16T12:06:38.144Z,65
2016-11-16T12:07:48.134Z,55
2016-11-16T12:08:58.431Z,45
2016-11-16T12:10:08.425Z,35
2016-11-16T12:11:18.708Z,30
2016-11-16T12:12:28.390Z,25
2016-11-16T12:13:38.674Z,25
2016-11-16T12:14:48.640Z,30
2016-11-16T12:15:58.295Z,35
2016-11-16T12:17:07.655Z,40
2016-11-16T12:18:17.931Z,45
2016-11-16T12:19:27.969Z,45
2016-11-16T12:20:38.268Z,45
2016-11-16T12:21:47.965Z,45
2016-11-16T12:22:58.242Z,45
2016-11-16T12:24:07.913Z,50
2016-11-16T12:25:17.889Z,55
2016-11-16T12:26:28.182Z,55
2016-11-16T12:27:38.239Z,50
2016-11-16T12:28:48.525Z,50
2016-11-16T12:29:58.813Z,45
2016-11-16T12:31:08.772Z,45
2016-11-16T12:32:19.073Z,45
2016-11-16T12:33:28.781Z,40
2016-11-16T12:34:38.742Z,45
2016-11-16T12:35:48.404Z,45
2016-11-16T12:36:58.059Z,45
2016-11-16T12:38:08.030Z,45
2016-11-16T12:39:18.001Z,50
2016-11-16T12:40:27.982Z,45
2016-11-16T12:41:37.639Z,45
2016-11-16T12:42:47.402Z,45
2016-11-16T12:43:57.687Z,50
2016-11-16T12:45:07.701Z,50
2016-11-16T12:46:17.677Z,50
2016-11-16T12:47:27.961Z,50
2016-11-16T12:48:38.255Z,50
2016-11-16T12:49:48.219Z,45
2016-11-16T12:50:58.191Z,45
2016-11-16T12:52:08.154Z,40
2016-11-16T12:53:18.140Z,40
2016-11-16T12:54:28.426Z,40
2016-11-16T12:55:38.414Z,35
2016-11-16T12:56:48.685Z,35
2016-11-16T12:57:58.985Z,35
2016-11-16T12:59:09.252Z,30
2016-11-16T13:00:19.219Z,25
2016-11-16T13:01:29.205Z,25
2016-11-16T13:02:38.871Z,20
2016-11-16T13:03:49.155Z,25
2016-11-16T13:04:59.511Z,20
2016-11-16T13:06:09.795Z,25
2016-11-16T13:07:19.786Z,25
2016-11-16T13:08:29.767Z,25
2016-11-16T13:09:39.766Z,25
2016-11-16T13:10:49.418Z,25
2016-11-16T13:11:59.453Z,20
2016-11-16T13:13:09.449Z,20
2016-11-16T13:14:19.754Z,20
2016-11-16T13:15:29.735Z,25
2016-11-16T13:16:40.013Z,25
2016-11-16T13:17:50.026Z,25
2016-11-16T13:19:00.278Z,25
2016-11-16T13:20:10.576Z,30
2016-11-16T13:21:20.859Z,30
2016-11-16T13:22:30.826Z,35
2016-11-16T13:23:40.483Z,35
2016-11-16T13:24:50.435Z,35
2016-11-16T13:26:00.698Z,35
2016-11-16T13:27:10.654Z,35
2016-11-16T13:28:20.955Z,35
2016-11-16T13:29:31.232Z,30
2016-11-16T13:30:41.199Z,30
2016-11-16T13:31:51.498Z,30
2016-11-16T13:33:01.797Z,30
2016-11-16T13:34:11.459Z,30
2016-11-16T13:35:21.436Z,30
2016-11-16T13:36:31.742Z,20
2016-11-16T13:37:42.048Z,15
2016-11-16T13:38:52.020Z,15
2016-11-16T13:40:01.992Z,15
2016-11-16T13:41:11.978Z,20
2016-11-16T13:42:21.950Z,20
2016-11-16T13:43:32.252Z,25
2016-11-16T13:44:41.639Z,20
2016-11-16T13:45:51.612Z,20
2016-11-16T13:47:01.567Z,20
2016-11-16T13:48:11.558Z,20
2016-11-16T13:49:21.829Z,20
2016-11-16T13:50:31.797Z,25
2016-11-16T13:51:41.452Z,25
2016-11-16T13:52:51.722Z,25
2016-11-16T13:54:01.380Z,20
2016-11-16T13:55:11.048Z,20
2016-11-16T13:56:21.325Z,20
2016-11-16T13:57:31.662Z,15
2016-11-16T13:58:41.628Z,15
2016-11-16T13:59:51.910Z,10
2016-11-16T14:01:01.889Z,10
2016-11-16T14:02:12.175Z,10
2016-11-16T14:03:21.871Z,10
2016-11-16T14:04:32.156Z,10
2016-11-16T14:05:42.459Z,10
2016-11-16T14:06:52.726Z,15
2016-11-16T14:08:02.387Z,15
2016-11-16T14:09:12.665Z,10
2016-11-16T14:10:22.950Z,15
2016-11-16T14:11:32.608Z,15
2016-11-16T14:12:42.892Z,15
2016-11-16T14:13:52.850Z,15
2016-11-16T14:15:02.509Z,15
2016-11-16T14:16:12.487Z,15
2016-11-16T14:17:22.461Z,15
2016-11-16T14:18:32.440Z,15
2016-11-16T14:19:42.408Z,15
2016-11-16T14:20:52.071Z,15
2016-11-16T14:22:02.333Z,15
2016-11-16T14:23:12.003Z,10
2016-11-16T14:24:21.973Z,15
2016-11-16T14:25:32.499Z,15
2016-11-16T14:26:43.085Z,10
2016-11-16T14:27:53.055Z,10
2016-11-16T14:29:03.046Z,10
2016-11-16T14:30:13.329Z,10
2016-11-16T14:31:23.309Z,10
2016-11-16T14:32:33.592Z,10
2016-11-16T14:33:43.249Z,10
2016-11-16T14:34:53.546Z,10
2016-11-16T14:36:03.526Z,10
2016-11-16T14:37:13.489Z,10
2016-11-16T14:38:23.470Z,5
2016-11-16T14:39:33.431Z,5
2016-11-16T14:40:43.702Z,5
2016-11-16T14:41:53.680Z,5
2016-11-16T14:43:03.975Z,0
2016-11-16T14:44:13.940Z,0
2016-11-16T14:45:23.594Z,5
2016-11-16T14:46:33.581Z,5
2016-11-16T14:47:43.864Z,5
2016-11-16T14:48:53.842Z,0
2016-11-16T14:50:04.120Z,0
2016-11-16T14:51:14.079Z,0
2016-11-16T14:52:24.389Z,0
2016-11-16T14:53:34.671Z,0
2016-11-16T14:54:44.980Z,0
2016-11-16T14:55:55.528Z,0
2016-11-16T14:57:05.982Z,0
2016-11-16T14:58:15.659Z,0
2016-11-16T14:59:26.011Z,0
2016-11-16T15:00:36.406Z,0
2016-11-16T15:01:46.702Z,0
2016-11-16T15:02:56.994Z,0
2016-11-16T15:04:07.035Z,0
2016-11-16T15:05:17.113Z,0
2016-11-16T15:06:27.619Z,0
2016-11-16T15:07:37.640Z,0
2016-11-16T15:08:48.130Z,0
2016-11-16T15:09:59.099Z,0
2016-11-16T15:11:09.646Z,0
2016-11-16T15:12:19.639Z,0
2016-11-16T15:13:29.667Z,0
2016-11-16T15:14:39.992Z,0
2016-11-16T15:15:50.291Z,0
2016-11-16T15:17:00.277Z,0
2016-11-16T15:18:10.572Z,0
2016-11-16T15:19:20.368Z,0
2016-11-16T15:20:30.680Z,0
2016-11-16T15:21:40.121Z,0
2016-11-16T15:22:50.183Z,0
2016-11-16T15:24:00.369Z,0
2016-11-16T15:25:10.657Z,0
2016-11-16T15:26:20.794Z,0
2016-11-16T15:27:30.781Z,0
2016-11-16T15:28:40.796Z,0
2016-11-16T15:29:50.817Z,0
2016-11-16T15:31:00.520Z,0
2016-11-16T15:32:10.255Z,0
2016-11-16T15:33:20.556Z,0
2016-11-16T15:34:31.046Z,0
2016-11-16T15:35:41.089Z,0
2016-11-16T15:36:51.438Z,0
2016-11-16T15:38:01.805Z,0
2016-11-16T15:39:11.922Z,0
2016-11-16T15:40:21.885Z,0
2016-11-16T15:41:32.221Z,0
2016-11-16T15:42:41.588Z,0
2016-11-16T15:43:51.290Z,0
2016-11-16T15:45:01.566Z,0
2016-11-16T15:46:11.575Z,0
2016-11-16T15:47:21.736Z,0
2016-11-16T15:48:32.127Z,0
2016-11-16T15:49:41.981Z,0
2016-11-16T15:50:51.704Z,0
2016-11-16T15:52:02.273Z,0
2016-11-16T15:53:12.103Z,0
2016-11-16T15:54:22.133Z,0
2016-11-16T15:55:32.521Z,0
2016-11-16T15:56:42.656Z,0
2016-11-16T15:57:53.041Z,0
2016-11-16T15:59:03.355Z,0
2016-11-16T16:00:13.383Z,0
2016-11-16T16:01:23.383Z,0
2016-11-16T16:02:33.405Z,0
2016-11-16T16:03:43.757Z,0
2016-11-16T16:04:54.094Z,0
2016-11-16T16:06:04.438Z,0
2016-11-16T16:07:14.887Z,0
2016-11-16T16:08:25.311Z,0
2016-11-16T16:09:36.173Z,0
2016-11-16T16:10:46.522Z,0
2016-11-16T16:11:56.600Z,0
2016-11-16T16:13:06.688Z,0
2016-11-16T16:14:16.692Z,0
2016-11-16T16:15:27.042Z,0
2016-11-16T16:16:37.379Z,0
2016-11-16T16:17:47.676Z,0
2016-11-16T16:18:57.679Z,0
2016-11-16T16:20:07.985Z,0
2016-11-16T16:21:17.987Z,0
2016-11-16T16:22:28.294Z,0
2016-11-16T16:23:38.573Z,0
2016-11-16T16:24:48.935Z,0
2016-11-16T16:25:58.941Z,0
2016-11-16T16:27:09.221Z,0
2016-11-16T16:28:18.591Z,0
2016-11-16T16:29:28.891Z,0
2016-11-16T16:30:38.908Z,0
2016-11-16T16:31:48.580Z,0
2016-11-16T16:32:58.590Z,0
2016-11-16T16:34:08.260Z,0
2016-11-16T16:35:17.960Z,0
2016-11-16T16:36:28.249Z,0
2016-11-16T16:37:38.525Z,0
2016-11-16T16:38:48.812Z,0
2016-11-16T16:39:58.507Z,0
2016-11-16T16:41:08.855Z,0
2016-11-16T16:42:19.143Z,0
2016-11-16T16:43:29.438Z,0
2016-11-16T16:44:39.749Z,0
2016-11-16T16:45:49.750Z,0
2016-11-16T16:46:59.716Z,0
2016-11-16T16:48:10.004Z,0
2016-11-16T16:49:19.390Z,0
2016-11-16T16:50:29.672Z,0
2016-11-16T16:51:39.963Z,0
2016-11-16T16:52:50.265Z,0
2016-11-16T16:54:00.565Z,0
2016-11-16T16:55:10.673Z,0
2016-11-16T16:56:20.668Z,0
2016-11-16T16:57:30.947Z,0
2016-11-16T16:58:41.502Z,0
2016-11-16T16:59:51.499Z,0
2016-11-16T17:01:01.789Z,0
2016-11-16T17:02:12.107Z,0
2016-11-16T17:03:22.112Z,0
2016-11-16T17:04:31.775Z,0
2016-11-16T17:05:41.777Z,0
2016-11-16T17:06:52.068Z,0
2016-11-16T17:08:02.370Z,0
2016-11-16T17:09:12.685Z,0
2016-11-16T17:10:22.363Z,0
2016-11-16T17:11:32.337Z,0
2016-11-16T17:12:42.056Z,0
2016-11-16T17:13:52.044Z,0
2016-11-16T17:15:02.028Z,0
2016-11-16T17:16:12.316Z,0
2016-11-16T17:17:22.615Z,0
2016-11-16T17:18:32.906Z,0
2016-11-16T17:19:42.879Z,0
2016-11-16T17:20:53.210Z,0
2016-11-16T17:22:03.534Z,0
2016-11-16T17:23:13.849Z,0
2016-11-16T17:24:23.841Z,0
2016-11-16T17:25:34.135Z,0
2016-11-16T17:26:44.128Z,0
2016-11-16T17:27:54.421Z,0
2016-11-16T17:29:04.407Z,0
2016-11-16T17:30:14.519Z,0